Estación Meteorológica Peña el Pijo (Robertgarden) [ 12/10/18 12:25:15 CET ]

Fecha Hora Presion(HPa) Temp (°C) Humedad % Rocio (°C) Viento ( m/s) Direccion Lluvia 1Hora(mm) Lluvia 24H(mm) LLuvia Total(mm)
2018-Aug-18 01:01:31 1012.800 14.3 81 11.1       1.55 290.59
2018-Aug-18 02:01:56 1012.500 13.8 83 10.9       1.55 290.59
2018-Aug-18 03:01:16 1012.300 13.3 84 10.6       1.55 290.59
2018-Aug-18 04:01:17 1012.400 13.1 85 10.6       1.55 290.59
2018-Aug-18 05:01:20 1012.700 12.4 86 10.1       1.55 290.59
2018-Aug-18 06:01:21 1012.600 12.3 87 10.2       1.55 290.59
2018-Aug-18 07:01:50 1012.400 11.9 87 9.8       1.55 290.59
2018-Aug-18 08:01:58 1012.600 11.6 88 9.7       1.55 290.59
2018-Aug-18 09:01:57 1012.700 15.1 90 13.5       1.55 290.59
2018-Aug-18 10:01:42 1012.700 20.1 80 16.6       1.55 290.59
2018-Aug-18 11:01:41 1012.700 24.7 61 16.7       1.55 290.59
2018-Aug-18 12:01:45 1012.800 28.5 52 17.7       1.55 290.59
2018-Aug-18 13:01:44 1012.700 30.1 46 17.2       0.51 290.59
2018-Aug-18 14:01:59 1012.100 28.6 47 15.8         290.59
2018-Aug-18 15:01:39 1012.300 18.4 72 13.3     2.07 2.07 292.67
2018-Aug-18 16:01:37 1011.900 22.1 76 17.7       2.07 292.67
2018-Aug-18 17:01:36 1011.300 22.8 74 17.9       2.07 292.67
2018-Aug-18 18:01:55 1012.200 19.1 79 15.4     0.51 2.59 293.18
2018-Aug-18 19:01:42 1012.100 20.8 77 16.6       2.59 293.18
2018-Aug-18 20:01:36 1011.800 18.9 80 15.5       2.59 293.18
2018-Aug-18 21:01:47 1012.300 18.6 80 15.1       2.59 293.18
2018-Aug-18 22:01:36 1012.400 17.6 82 14.5       2.59 293.18
2018-Aug-18 23:01:40 1013.200 17.0 85 14.3       2.59 293.18

Temperatura Máxima:30°    Temperatura Mínima:11°
Presión Máxima:1013.200 Hpa    Presión Mínima:1011.300 Hpa


Volver